Time;durP1;ratioP1;P1;durP2;ratioP2;P2;SDS_P1;SDS_P2;PMS_P1;PMS_P2;Temp;Humidity;BMP_temperature;BMP_pressure;BME280_temperature;BME280_humidity;BME280_pressure;Samples;Min_cycle;Max_cycle;Signal;HPM_P1;HPM_P2
2022/03/16 00:01:53;;;;;;;30.80;19.90;;;5.50;99.90;;;;;;4931773;28;20501;-77
2022/03/16 00:04:19;;;;;;;32.38;18.60;;;5.50;99.90;;;;;;4931849;28;21043;-77
2022/03/16 00:06:44;;;;;;;32.40;20.95;;;5.30;99.90;;;;;;4931513;28;20601;-76
2022/03/16 00:09:10;;;;;;;29.67;19.13;;;5.30;99.90;;;;;;4937659;28;20404;-75
2022/03/16 00:11:36;;;;;;;32.40;20.10;;;5.30;99.90;;;;;;4936970;28;20498;-77
2022/03/16 00:14:02;;;;;;;32.80;19.63;;;5.20;99.90;;;;;;4946680;28;20467;-76
2022/03/16 00:16:27;;;;;;;34.33;19.50;;;5.20;99.90;;;;;;4933090;28;20411;-76
2022/03/16 00:18:53;;;;;;;31.83;20.40;;;5.10;99.90;;;;;;4931356;28;20410;-77
2022/03/16 00:21:19;;;;;;;32.07;18.87;;;5.10;99.90;;;;;;4931499;28;20988;-76
2022/03/16 00:23:44;;;;;;;31.35;19.38;;;5.20;99.90;;;;;;4931583;28;20400;-76
2022/03/16 00:26:10;;;;;;;31.02;19.80;;;5.20;99.90;;;;;;4931575;29;20419;-76
2022/03/16 00:28:35;;;;;;;28.20;18.85;;;5.40;99.90;;;;;;4932658;28;20469;-76
2022/03/16 00:31:04;;;;;;;26.50;17.95;;;5.50;99.90;;;;;;4934612;28;20470;-76
2022/03/16 00:33:30;;;;;;;26.17;17.38;;;5.40;99.90;;;;;;4939459;28;20418;-76
2022/03/16 00:35:56;;;;;;;30.83;18.47;;;5.30;99.90;;;;;;4921528;28;20399;-76
2022/03/16 00:38:21;;;;;;;25.97;16.77;;;5.40;99.90;;;;;;4939905;29;20447;-75
2022/03/16 00:40:47;;;;;;;25.97;18.13;;;5.20;99.90;;;;;;4939223;29;20433;-75
2022/03/16 00:43:14;;;;;;;28.60;17.87;;;5.10;99.90;;;;;;4935562;28;20442;-78
2022/03/16 00:45:40;;;;;;;30.98;18.50;;;5.00;99.90;;;;;;4932538;28;20427;-75
2022/03/16 00:48:06;;;;;;;26.73;16.85;;;5.00;99.90;;;;;;4932934;28;20482;-76
2022/03/16 00:50:32;;;;;;;30.85;16.85;;;4.90;99.90;;;;;;4933098;28;20499;-76
2022/03/16 00:52:58;;;;;;;29.63;18.43;;;5.10;99.90;;;;;;4932965;28;20411;-77
2022/03/16 00:55:23;;;;;;;25.80;17.50;;;5.00;99.90;;;;;;4934663;28;20465;-77
2022/03/16 00:57:49;;;;;;;26.17;17.25;;;5.00;99.90;;;;;;4937284;28;20408;-77
2022/03/16 01:00:14;;;;;;;27.60;17.65;;;4.90;99.90;;;;;;4933949;28;20443;-76
2022/03/16 01:02:40;;;;;;;25.50;17.13;;;5.10;99.90;;;;;;4915722;28;20436;-77
2022/03/16 01:05:06;;;;;;;28.95;16.70;;;5.10;99.90;;;;;;4932825;28;20404;-76
2022/03/16 01:07:31;;;;;;;26.60;16.70;;;5.20;99.90;;;;;;4936197;28;20908;-76
2022/03/16 01:09:57;;;;;;;23.40;16.63;;;5.10;99.90;;;;;;4934640;28;20919;-76
2022/03/16 01:12:23;;;;;;;25.50;16.87;;;4.90;99.90;;;;;;4939506;28;20461;-76
2022/03/16 01:14:49;;;;;;;26.02;17.00;;;4.90;99.90;;;;;;4936975;28;20443;-77
2022/03/16 01:17:14;;;;;;;25.92;16.98;;;4.80;99.90;;;;;;4916179;28;20511;-76
2022/03/16 01:19:40;;;;;;;28.50;17.73;;;4.70;99.90;;;;;;4938745;29;20428;-76
2022/03/16 01:22:06;;;;;;;26.50;17.07;;;4.80;99.90;;;;;;4940251;29;20796;-77
2022/03/16 01:24:32;;;;;;;29.38;16.70;;;4.70;99.90;;;;;;4933965;29;20396;-76
2022/03/16 01:26:58;;;;;;;30.70;17.70;;;4.80;99.90;;;;;;4931799;28;20411;-76
2022/03/16 01:29:24;;;;;;;27.40;17.25;;;5.10;99.90;;;;;;4918962;28;20498;-75
2022/03/16 01:31:52;;;;;;;27.13;18.50;;;5.20;99.90;;;;;;4933904;28;20407;-76
2022/03/16 01:34:17;;;;;;;26.63;17.10;;;5.00;99.90;;;;;;4934728;29;20410;-76
2022/03/16 01:36:43;;;;;;;31.13;17.05;;;5.00;99.90;;;;;;4932994;28;20404;-77
2022/03/16 01:39:09;;;;;;;28.38;18.35;;;4.90;99.90;;;;;;4934447;28;20408;-75
2022/03/16 01:41:35;;;;;;;25.63;17.10;;;5.00;99.90;;;;;;4933893;29;20505;-76
2022/03/16 01:44:01;;;;;;;29.90;18.00;;;4.90;99.90;;;;;;4930470;29;20407;-76
2022/03/16 01:46:27;;;;;;;25.95;16.55;;;5.30;99.90;;;;;;4933274;28;20400;-75
2022/03/16 01:48:52;;;;;;;24.67;16.27;;;5.20;99.90;;;;;;4940452;28;20408;-76
2022/03/16 01:51:19;;;;;;;24.73;16.17;;;5.10;99.90;;;;;;4934931;28;20487;-74
2022/03/16 01:53:45;;;;;;;27.08;16.50;;;5.30;99.90;;;;;;4934370;28;20934;-76
2022/03/16 01:56:10;;;;;;;24.67;16.73;;;5.30;99.90;;;;;;4933792;28;20499;-75
2022/03/16 01:58:36;;;;;;;26.05;16.27;;;5.20;99.90;;;;;;4933194;28;20411;-76
2022/03/16 02:01:02;;;;;;;24.40;16.30;;;5.10;99.90;;;;;;4935454;28;20478;-76
2022/03/16 02:03:28;;;;;;;29.95;17.42;;;5.00;99.90;;;;;;4935022;28;20490;-75
2022/03/16 02:05:54;;;;;;;28.20;17.07;;;4.90;99.90;;;;;;4937226;28;20408;-74
2022/03/16 02:08:20;;;;;;;26.02;17.08;;;4.80;99.90;;;;;;4965218;28;20438;-74
2022/03/16 02:10:46;;;;;;;28.40;17.00;;;4.70;99.90;;;;;;4944367;28;20415;-76
2022/03/16 02:13:12;;;;;;;29.00;17.40;;;4.60;99.90;;;;;;4935669;28;20489;-75
2022/03/16 02:15:37;;;;;;;24.67;16.17;;;4.70;99.90;;;;;;4944659;28;20408;-75
2022/03/16 02:18:03;;;;;;;29.50;17.92;;;4.70;99.90;;;;;;4938947;28;20423;-74
2022/03/16 02:20:29;;;;;;;27.33;17.10;;;4.70;99.90;;;;;;4917681;28;20455;-75
2022/03/16 02:23:13;;;;;;;27.90;17.10;;;5.00;99.90;;;;;;4933801;28;20502;-76
2022/03/16 02:25:52;;;;;;;28.80;17.45;;;5.00;99.90;;;;;;4932719;28;20409;-75
2022/03/16 02:28:18;;;;;;;26.00;16.90;;;4.80;99.90;;;;;;4931757;28;20422;-74
2022/03/16 02:30:44;;;;;;;25.92;16.77;;;4.80;99.90;;;;;;4916762;28;20466;-75
2022/03/16 02:33:10;;;;;;;29.43;18.00;;;4.80;99.90;;;;;;4935603;29;20408;-75
2022/03/16 02:35:36;;;;;;;26.60;16.80;;;5.00;99.90;;;;;;4936684;28;20411;-75
2022/03/16 02:38:03;;;;;;;28.10;17.30;;;5.10;99.90;;;;;;4939887;28;20410;-75
2022/03/16 02:40:29;;;;;;;28.47;16.57;;;5.10;99.90;;;;;;4935584;28;20484;-75
2022/03/16 02:42:54;;;;;;;26.25;17.25;;;5.10;99.90;;;;;;4934021;28;20401;-75
2022/03/16 02:45:20;;;;;;;31.33;17.00;;;5.10;99.70;;;;;;4932859;28;20434;-75
2022/03/16 02:47:47;;;;;;;26.67;17.00;;;5.10;98.70;;;;;;4934535;28;20403;-75
2022/03/16 02:50:13;;;;;;;28.45;17.08;;;5.10;98.30;;;;;;4935050;29;20519;-74
2022/03/16 02:52:39;;;;;;;25.17;16.77;;;5.10;99.40;;;;;;4934406;28;20439;-74
2022/03/16 02:55:06;;;;;;;26.85;17.13;;;5.20;96.60;;;;;;4934134;28;20533;-76
2022/03/16 02:57:33;;;;;;;27.67;16.65;;;5.20;95.50;;;;;;4918443;28;20442;-76
2022/03/16 02:59:58;;;;;;;30.10;16.25;;;5.30;95.50;;;;;;4934820;28;20434;-75
2022/03/16 03:02:24;;;;;;;29.80;16.83;;;5.20;94.70;;;;;;4933950;28;20408;-77
2022/03/16 03:04:49;;;;;;;26.33;17.33;;;5.10;97.00;;;;;;4916557;28;20408;-75
2022/03/16 03:07:15;;;;;;;27.07;18.00;;;5.00;96.50;;;;;;4933576;28;20833;-76
2022/03/16 03:09:40;;;;;;;30.83;17.40;;;4.90;99.10;;;;;;4933639;28;20404;-75
2022/03/16 03:12:06;;;;;;;34.67;18.40;;;4.90;99.90;;;;;;4933706;28;20442;-75
2022/03/16 03:14:32;;;;;;;29.92;17.90;;;4.80;99.90;;;;;;4931109;29;20538;-75
2022/03/16 03:16:58;;;;;;;27.67;16.90;;;4.80;99.90;;;;;;4930941;29;20422;-76
2022/03/16 03:19:24;;;;;;;26.45;15.52;;;4.80;99.90;;;;;;4932364;28;20495;-75
2022/03/16 03:21:50;;;;;;;27.52;16.70;;;4.80;99.90;;;;;;4931920;28;20738;-75
2022/03/16 03:24:16;;;;;;;25.38;16.05;;;4.80;99.90;;;;;;4931808;28;20461;-76
2022/03/16 03:26:41;;;;;;;27.27;15.73;;;4.80;99.90;;;;;;4934287;28;20423;-76
2022/03/16 03:29:07;;;;;;;24.35;14.20;;;5.10;99.90;;;;;;4933481;28;20916;-75
2022/03/16 03:31:33;;;;;;;27.83;15.87;;;5.10;99.40;;;;;;4932587;28;21168;-74
2022/03/16 03:33:59;;;;;;;26.25;14.93;;;4.90;98.50;;;;;;4931441;29;20734;-76
2022/03/16 03:36:24;;;;;;;24.70;14.90;;;4.90;97.70;;;;;;4932274;28;20408;-75
2022/03/16 03:38:50;;;;;;;30.60;15.17;;;4.90;99.20;;;;;;4931654;28;20455;-75
2022/03/16 03:41:16;;;;;;;29.10;15.97;;;4.90;99.60;;;;;;4916160;28;20430;-76
2022/03/16 03:43:41;;;;;;;24.83;15.10;;;4.80;99.90;;;;;;4934618;28;20896;-75
2022/03/16 03:46:07;;;;;;;25.17;14.30;;;4.80;99.90;;;;;;4932755;28;20414;-76
2022/03/16 03:48:32;;;;;;;22.97;14.10;;;4.80;99.90;;;;;;4933427;28;20412;-76
2022/03/16 03:50:59;;;;;;;22.93;14.20;;;4.80;99.90;;;;;;4936011;28;20411;-74
2022/03/16 03:53:24;;;;;;;24.95;14.13;;;4.80;99.90;;;;;;4920080;28;20447;-75
2022/03/16 03:55:50;;;;;;;23.87;13.33;;;4.70;99.90;;;;;;4936531;28;20412;-75
2022/03/16 03:58:15;;;;;;;22.70;14.20;;;4.80;99.90;;;;;;4936732;28;20443;-76
2022/03/16 04:00:41;;;;;;;24.80;14.00;;;4.80;99.90;;;;;;4935866;28;20415;-77
2022/03/16 04:03:07;;;;;;;23.77;14.37;;;4.70;99.90;;;;;;4935424;28;20445;-75
2022/03/16 04:05:32;;;;;;;22.90;14.47;;;4.80;99.90;;;;;;4935187;28;20407;-76
2022/03/16 04:07:58;;;;;;;24.90;14.48;;;4.90;99.80;;;;;;4944484;28;20496;-75
2022/03/16 04:10:24;;;;;;;21.60;14.05;;;4.80;98.70;;;;;;4950198;28;20408;-75
2022/03/16 04:12:50;;;;;;;19.27;12.37;;;4.80;99.80;;;;;;4938234;28;20399;-75
2022/03/16 04:15:15;;;;;;;22.40;13.27;;;4.90;99.90;;;;;;4938904;28;20438;-75
2022/03/16 04:17:41;;;;;;;21.05;13.00;;;5.00;99.90;;;;;;4961512;28;20757;-75
2022/03/16 04:20:07;;;;;;;24.27;13.65;;;5.00;99.10;;;;;;4933185;28;20427;-75
2022/03/16 04:22:33;;;;;;;26.02;13.30;;;4.90;98.70;;;;;;4933714;28;20884;-76
2022/03/16 04:24:58;;;;;;;21.40;13.48;;;4.80;98.40;;;;;;4935897;28;20432;-76
2022/03/16 04:27:24;;;;;;;23.40;13.40;;;4.70;99.90;;;;;;4935158;28;20412;-74
2022/03/16 04:29:50;;;;;;;26.90;13.95;;;4.70;99.90;;;;;;4935035;28;20407;-74
2022/03/16 04:32:15;;;;;;;22.75;13.68;;;4.60;99.90;;;;;;4935118;28;20419;-75
2022/03/16 04:34:41;;;;;;;24.87;14.23;;;4.50;99.90;;;;;;4934453;28;20487;-75
2022/03/16 04:37:07;;;;;;;24.08;14.40;;;4.50;99.90;;;;;;4927315;28;20410;-75
2022/03/16 04:39:33;;;;;;;23.27;14.32;;;4.50;99.90;;;;;;4936299;28;20908;-75
2022/03/16 04:41:58;;;;;;;24.10;14.77;;;4.60;99.90;;;;;;4934516;28;20426;-75
2022/03/16 04:44:24;;;;;;;31.27;15.73;;;4.60;99.90;;;;;;4935241;29;20400;-75
2022/03/16 04:46:50;;;;;;;26.57;15.73;;;4.50;99.90;;;;;;4934302;28;20827;-74
2022/03/16 04:49:16;;;;;;;25.75;16.00;;;4.50;99.90;;;;;;4935086;28;20408;-74
2022/03/16 04:51:42;;;;;;;24.88;14.90;;;4.50;99.90;;;;;;4935794;28;20399;-75
2022/03/16 04:54:10;;;;;;;25.83;15.90;;;4.60;99.90;;;;;;4935103;28;20443;-75
2022/03/16 04:56:36;;;;;;;25.77;16.00;;;4.60;99.90;;;;;;4933823;28;20915;-75
2022/03/16 04:59:03;;;;;;;24.92;16.30;;;4.50;99.90;;;;;;4933572;28;20404;-75
2022/03/16 05:01:29;;;;;;;25.60;16.27;;;4.50;99.90;;;;;;4937824;28;20521;-75
2022/03/16 05:03:54;;;;;;;31.70;16.92;;;4.50;99.90;;;;;;4935209;28;20423;-74
2022/03/16 05:06:20;;;;;;;25.77;16.60;;;4.40;99.90;;;;;;4935115;28;20499;-75
2022/03/16 05:08:47;;;;;;;31.80;16.38;;;4.50;99.90;;;;;;4941554;28;20411;-75
2022/03/16 05:11:14;;;;;;;30.33;17.55;;;4.50;99.90;;;;;;4941561;28;20407;-76
2022/03/16 05:13:40;;;;;;;29.13;17.75;;;4.30;99.90;;;;;;4930513;28;20421;-74
2022/03/16 05:16:07;;;;;;;31.75;17.17;;;4.20;99.90;;;;;;4941338;29;20440;-74
2022/03/16 05:18:33;;;;;;;30.03;15.70;;;4.10;99.90;;;;;;4941943;28;20455;-74
2022/03/16 05:20:59;;;;;;;28.88;16.10;;;4.40;99.90;;;;;;4933263;28;20422;-75
2022/03/16 05:23:24;;;;;;;29.20;16.07;;;4.40;99.90;;;;;;4923019;28;20423;-74
2022/03/16 05:25:50;;;;;;;23.83;15.50;;;4.30;99.90;;;;;;4938351;29;20453;-75
2022/03/16 05:28:16;;;;;;;31.70;17.75;;;4.20;99.90;;;;;;4916705;28;20410;-74
2022/03/16 05:30:42;;;;;;;25.83;16.83;;;4.10;99.90;;;;;;4932840;28;20900;-75
2022/03/16 05:33:08;;;;;;;25.77;17.10;;;4.00;99.90;;;;;;4933267;28;20414;-76
2022/03/16 05:35:34;;;;;;;27.40;16.90;;;4.00;99.90;;;;;;4935596;28;20796;-76
2022/03/16 05:38:02;;;;;;;32.03;16.88;;;4.00;99.90;;;;;;4930483;28;20435;-74
2022/03/16 05:40:28;;;;;;;28.80;16.25;;;4.00;99.90;;;;;;4933292;28;20418;-75
2022/03/16 05:42:54;;;;;;;25.98;15.75;;;4.00;99.90;;;;;;4933218;28;20428;-75
2022/03/16 05:45:20;;;;;;;26.07;15.80;;;4.10;99.90;;;;;;4933609;28;20400;-75
2022/03/16 05:47:45;;;;;;;27.60;16.53;;;4.10;99.90;;;;;;4932185;28;20407;-75
2022/03/16 05:50:11;;;;;;;32.50;17.75;;;4.10;99.90;;;;;;4926013;28;20428;-75
2022/03/16 05:52:37;;;;;;;31.70;17.33;;;4.10;99.90;;;;;;4914712;29;20446;-75
2022/03/16 05:55:04;;;;;;;29.65;16.80;;;4.00;99.90;;;;;;4936144;28;20539;-76
2022/03/16 05:57:29;;;;;;;28.55;15.85;;;4.00;99.90;;;;;;4931037;29;20403;-75
2022/03/16 05:59:55;;;;;;;28.10;16.45;;;4.10;99.90;;;;;;4931825;28;20438;-75
2022/03/16 06:02:21;;;;;;;32.40;17.85;;;4.10;99.90;;;;;;4932530;28;20423;-74
2022/03/16 06:04:46;;;;;;;28.63;16.27;;;4.20;99.90;;;;;;4929385;29;20436;-72
2022/03/16 06:07:12;;;;;;;27.13;16.40;;;4.20;99.90;;;;;;4931579;28;20468;-72
2022/03/16 06:09:38;;;;;;;32.13;16.65;;;4.20;99.90;;;;;;4941085;28;20408;-71
2022/03/16 06:12:05;;;;;;;29.58;17.30;;;4.20;99.90;;;;;;4927848;28;20938;-71
2022/03/16 06:14:31;;;;;;;29.10;16.38;;;4.30;99.90;;;;;;4930689;28;20423;-72
2022/03/16 06:16:57;;;;;;;30.27;16.92;;;4.30;99.90;;;;;;4936388;28;20443;-73
2022/03/16 06:19:22;;;;;;;28.77;16.00;;;4.40;99.90;;;;;;4952648;28;20428;-74
2022/03/16 06:21:48;;;;;;;28.87;15.37;;;4.60;99.90;;;;;;4928904;28;20417;-71
2022/03/16 06:24:14;;;;;;;27.65;15.38;;;4.60;99.70;;;;;;4931306;28;20465;-71
2022/03/16 06:26:41;;;;;;;31.50;15.85;;;4.60;99.60;;;;;;4930660;28;20414;-72
2022/03/16 06:29:06;;;;;;;30.17;15.07;;;4.80;98.10;;;;;;4930222;28;20549;-72
2022/03/16 06:31:32;;;;;;;23.10;14.57;;;5.00;94.20;;;;;;4931077;28;20487;-72
2022/03/16 06:33:59;;;;;;;24.58;14.43;;;4.90;91.90;;;;;;4924602;28;20796;-71
2022/03/16 06:36:26;;;;;;;23.95;14.27;;;4.90;88.50;;;;;;4931248;28;20414;-69
2022/03/16 06:38:52;;;;;;;32.78;15.95;;;4.90;88.20;;;;;;4930157;29;20421;-75
2022/03/16 06:41:18;;;;;;;33.58;15.50;;;5.10;89.90;;;;;;4930671;29;20428;-74
2022/03/16 06:43:43;;;;;;;24.40;14.73;;;5.00;87.40;;;;;;4931560;28;20496;-75
2022/03/16 06:46:09;;;;;;;27.95;14.75;;;5.10;88.80;;;;;;4931942;28;20769;-75
2022/03/16 06:48:35;;;;;;;26.03;16.10;;;5.10;86.30;;;;;;4930450;28;20915;-74
2022/03/16 06:51:00;;;;;;;26.33;14.10;;;5.20;88.30;;;;;;4929039;28;21126;-74
2022/03/16 06:53:27;;;;;;;27.73;16.37;;;5.40;87.80;;;;;;4929432;28;20502;-75
2022/03/16 06:55:53;;;;;;;25.17;15.15;;;5.70;87.10;;;;;;4930814;28;20407;-75
2022/03/16 06:58:19;;;;;;;25.73;15.50;;;5.80;80.30;;;;;;4931660;28;20418;-76
2022/03/16 07:00:45;;;;;;;24.73;15.38;;;5.90;78.50;;;;;;4930730;28;20820;-76
2022/03/16 07:03:10;;;;;;;27.45;14.82;;;5.90;77.60;;;;;;4931904;28;20420;-76
2022/03/16 07:05:38;;;;;;;27.25;15.65;;;6.00;73.60;;;;;;4932281;28;20400;-75
2022/03/16 07:08:07;;;;;;;30.42;14.57;;;6.10;74.20;;;;;;4932231;28;20491;-75
2022/03/16 07:10:34;;;;;;;25.60;14.90;;;6.10;73.70;;;;;;4917575;28;21003;-75
2022/03/16 07:13:00;;;;;;;23.45;15.20;;;6.20;72.20;;;;;;4914935;28;20589;-73
2022/03/16 07:15:27;;;;;;;32.00;16.27;;;6.30;72.80;;;;;;4930913;28;20412;-74
2022/03/16 07:17:52;;;;;;;28.67;15.88;;;6.50;72.20;;;;;;4933014;28;20761;-73
2022/03/16 07:20:18;;;;;;;25.90;14.95;;;6.50;68.90;;;;;;4930256;28;20416;-75
2022/03/16 07:22:44;;;;;;;23.88;14.73;;;6.10;68.10;;;;;;4911918;28;20956;-76
2022/03/16 07:25:10;;;;;;;26.15;15.52;;;6.80;65.80;;;;;;4935412;28;20873;-75
2022/03/16 07:27:40;;;;;;;22.83;14.27;;;6.80;67.50;;;;;;4931341;28;20415;-75
2022/03/16 07:30:08;;;;;;;28.43;15.70;;;6.80;64.60;;;;;;4933793;29;21022;-75
2022/03/16 07:32:39;;;;;;;28.50;14.82;;;6.90;64.60;;;;;;4934562;28;20785;-75
2022/03/16 07:35:06;;;;;;;28.83;16.50;;;7.00;64.60;;;;;;4935174;29;20488;-74
2022/03/16 07:37:32;;;;;;;29.05;14.98;;;7.10;63.60;;;;;;4936778;29;20404;-75
2022/03/16 07:39:57;;;;;;;26.90;15.07;;;7.30;65.10;;;;;;4935286;28;20425;-76
2022/03/16 07:42:23;;;;;;;27.30;15.10;;;7.40;62.10;;;;;;4932273;28;20414;-74
2022/03/16 07:44:50;;;;;;;25.13;14.80;;;7.70;60.60;;;;;;4937052;28;20415;-75
2022/03/16 07:47:16;;;;;;;25.75;14.50;;;7.80;57.00;;;;;;4931780;28;20469;-75
2022/03/16 07:49:42;;;;;;;23.23;14.30;;;8.10;56.30;;;;;;4922495;28;20786;-75
2022/03/16 07:52:07;;;;;;;21.52;13.88;;;8.20;54.10;;;;;;4932321;28;20404;-75
2022/03/16 07:54:34;;;;;;;22.75;14.05;;;8.30;52.20;;;;;;4936549;28;20477;-75
2022/03/16 07:57:00;;;;;;;22.48;13.50;;;8.50;50.90;;;;;;4930075;28;20860;-75
2022/03/16 07:59:25;;;;;;;19.45;13.13;;;8.50;49.90;;;;;;4930136;28;20432;-75
2022/03/16 08:01:51;;;;;;;23.30;13.90;;;8.70;48.10;;;;;;4929666;28;20903;-75
2022/03/16 08:04:16;;;;;;;21.00;13.43;;;8.80;47.40;;;;;;4930982;28;20495;-74
2022/03/16 08:06:42;;;;;;;21.92;13.70;;;9.00;46.60;;;;;;4932737;28;20404;-75
2022/03/16 08:09:07;;;;;;;20.30;13.55;;;9.10;45.10;;;;;;4935319;29;20403;-74
2022/03/16 08:11:33;;;;;;;19.52;13.13;;;9.10;43.30;;;;;;4938911;28;20444;-75
2022/03/16 08:13:59;;;;;;;22.23;13.27;;;9.20;43.10;;;;;;4932541;28;20471;-74
2022/03/16 08:16:24;;;;;;;20.25;13.35;;;9.40;41.60;;;;;;4933203;28;20489;-74
2022/03/16 08:18:50;;;;;;;19.23;13.30;;;9.40;42.60;;;;;;4940457;28;20404;-73
2022/03/16 08:21:15;;;;;;;19.45;13.02;;;9.60;41.30;;;;;;4936873;28;20518;-76
2022/03/16 08:23:41;;;;;;;21.35;13.73;;;9.60;40.50;;;;;;4939715;28;20419;-74
2022/03/16 08:26:07;;;;;;;18.33;12.77;;;9.70;39.60;;;;;;4915385;28;20419;-74
2022/03/16 08:28:32;;;;;;;19.92;13.18;;;9.80;40.40;;;;;;4933988;28;20400;-75
2022/03/16 08:30:59;;;;;;;22.27;13.05;;;9.90;40.20;;;;;;4933840;28;20408;-74
2022/03/16 08:33:24;;;;;;;24.65;13.88;;;9.80;38.40;;;;;;4936260;28;20466;-75
2022/03/16 08:35:51;;;;;;;18.80;12.77;;;9.90;37.20;;;;;;4934035;28;20808;-76
2022/03/16 08:38:16;;;;;;;21.00;13.77;;;10.00;39.60;;;;;;4937195;28;20848;-77
2022/03/16 08:40:42;;;;;;;19.83;13.27;;;10.10;37.50;;;;;;4935702;28;20522;-76
2022/03/16 08:43:08;;;;;;;19.50;12.30;;;10.30;37.00;;;;;;4933122;28;20411;-77
2022/03/16 08:45:34;;;;;;;19.85;12.45;;;10.50;37.00;;;;;;4932825;28;20442;-75
2022/03/16 08:48:01;;;;;;;17.65;12.23;;;10.60;35.30;;;;;;4930331;28;20526;-75
2022/03/16 08:50:30;;;;;;;22.40;13.20;;;10.70;34.30;;;;;;4930718;29;20573;-75
2022/03/16 08:52:56;;;;;;;19.50;13.05;;;10.70;35.00;;;;;;4931848;28;20425;-77
2022/03/16 08:55:22;;;;;;;20.10;12.30;;;11.00;34.50;;;;;;4933623;28;20411;-76
2022/03/16 08:57:47;;;;;;;18.13;11.60;;;11.10;33.40;;;;;;4929553;28;20438;-75
2022/03/16 09:00:15;;;;;;;17.73;12.20;;;11.20;31.50;;;;;;4929877;28;20415;-76
2022/03/16 09:02:45;;;;;;;17.40;12.40;;;11.10;33.10;;;;;;4922630;28;20460;-79
2022/03/16 09:05:17;;;;;;;19.27;12.55;;;11.10;31.90;;;;;;4933319;29;20419;-76
2022/03/16 09:07:43;;;;;;;17.33;12.25;;;11.20;30.60;;;;;;4932513;29;20399;-76
2022/03/16 09:10:09;;;;;;;18.30;12.38;;;11.40;31.30;;;;;;4914210;28;20944;-77
2022/03/16 09:12:35;;;;;;;17.42;11.88;;;11.50;31.00;;;;;;4931674;29;20722;-77
2022/03/16 09:15:01;;;;;;;20.25;12.57;;;11.50;30.80;;;;;;4934208;28;20414;-76
2022/03/16 09:17:28;;;;;;;17.65;12.50;;;11.30;29.90;;;;;;4935294;28;20487;-76
2022/03/16 09:19:53;;;;;;;16.15;12.30;;;11.30;31.30;;;;;;4933744;29;20412;-74
2022/03/16 09:22:20;;;;;;;17.23;12.27;;;11.10;30.10;;;;;;4930924;28;20414;-75
2022/03/16 09:24:48;;;;;;;17.45;11.77;;;11.10;31.00;;;;;;4915004;28;20507;-75
2022/03/16 09:27:14;;;;;;;22.05;12.02;;;11.20;31.80;;;;;;4934005;28;20407;-74
2022/03/16 09:29:40;;;;;;;23.23;11.70;;;11.40;30.50;;;;;;4933631;28;20972;-76
2022/03/16 09:32:07;;;;;;;20.23;12.70;;;11.70;30.00;;;;;;4932678;28;20496;-75
2022/03/16 09:34:32;;;;;;;20.33;12.32;;;11.80;30.40;;;;;;4933326;28;20435;-74
2022/03/16 09:36:58;;;;;;;18.60;12.90;;;11.90;30.00;;;;;;4930502;28;20786;-75
2022/03/16 09:39:24;;;;;;;21.50;11.77;;;11.90;28.10;;;;;;4930327;28;20415;-75
2022/03/16 09:41:50;;;;;;;19.07;11.77;;;12.00;29.10;;;;;;4914751;28;20424;-76
2022/03/16 09:44:16;;;;;;;16.37;11.47;;;12.00;30.00;;;;;;4933438;28;20462;-75
2022/03/16 09:46:44;;;;;;;18.15;12.75;;;12.10;28.20;;;;;;4928763;28;20448;-75
2022/03/16 09:49:14;;;;;;;19.48;12.13;;;11.90;28.70;;;;;;4929365;29;20408;-75
2022/03/16 09:51:41;;;;;;;18.02;12.07;;;12.00;28.80;;;;;;4910879;28;20454;-76
2022/03/16 09:54:07;;;;;;;20.13;11.93;;;12.00;28.90;;;;;;4928592;29;20400;-76
2022/03/16 09:56:33;;;;;;;18.52;11.90;;;12.00;29.20;;;;;;4930375;28;20415;-76
2022/03/16 09:58:59;;;;;;;18.80;12.10;;;11.90;29.10;;;;;;4929107;29;20419;-73
2022/03/16 10:01:25;;;;;;;18.15;12.60;;;12.10;29.40;;;;;;4930200;28;20416;-77
2022/03/16 10:03:52;;;;;;;21.15;12.80;;;12.10;28.10;;;;;;4930091;28;20396;-75
2022/03/16 10:06:22;;;;;;;17.00;11.90;;;12.10;28.00;;;;;;4930460;28;20439;-77
2022/03/16 10:13:13;;;;;;;21.10;12.43;;;12.10;27.70;;;;;;4931353;28;20524;-75
2022/03/16 10:14:18;;;;;;;15.98;11.40;;;12.10;28.00;;;;;;4925438;28;20415;-75
2022/03/16 10:19:51;;;;;;;15.85;11.70;;;12.30;28.70;;;;;;4929403;29;20423;-75
2022/03/16 10:22:30;;;;;;;16.13;11.37;;;12.20;27.20;;;;;;4929063;28;20511;-74
2022/03/16 10:25:00;;;;;;;14.30;10.55;;;12.30;26.70;;;;;;4929241;29;20427;-74
2022/03/16 10:27:26;;;;;;;14.43;10.20;;;12.30;26.70;;;;;;4928771;29;20412;-73
2022/03/16 10:29:52;;;;;;;13.57;10.40;;;12.40;26.20;;;;;;4929610;28;20462;-74
2022/03/16 10:32:20;;;;;;;13.50;9.50;;;12.50;26.70;;;;;;4931189;28;20408;-76
2022/03/16 10:34:53;;;;;;;13.85;9.65;;;12.70;26.30;;;;;;4932358;28;20430;-76
2022/03/16 10:37:21;;;;;;;11.50;8.82;;;12.80;24.50;;;;;;4930052;28;20422;-74
2022/03/16 10:39:51;;;;;;;13.18;9.50;;;12.70;24.50;;;;;;4931143;29;20426;-73
2022/03/16 10:48:00;;;;;;;12.50;8.85;;;12.80;22.90;;;;;;4929872;29;20931;-74
2022/03/16 10:50:26;;;;;;;11.95;8.95;;;12.80;24.10;;;;;;4928284;28;20434;-75
2022/03/16 10:52:53;;;;;;;11.82;9.10;;;12.60;23.30;;;;;;4933516;28;20484;-74
2022/03/16 10:55:22;;;;;;;10.23;7.95;;;12.70;23.80;;;;;;4920424;29;20408;-75
2022/03/16 10:57:51;;;;;;;13.80;9.27;;;12.70;24.70;;;;;;4931639;28;20456;-74
2022/03/16 11:00:18;;;;;;;12.20;9.02;;;12.70;23.50;;;;;;4932665;29;20434;-74
2022/03/16 11:02:45;;;;;;;12.80;9.20;;;12.90;23.30;;;;;;4931695;29;20923;-74
2022/03/16 11:05:11;;;;;;;12.98;8.90;;;12.90;23.50;;;;;;4912021;28;20407;-76
2022/03/16 11:07:39;;;;;;;12.27;9.00;;;13.00;23.60;;;;;;4928963;28;20414;-75
2022/03/16 11:10:06;;;;;;;11.23;8.55;;;13.00;22.50;;;;;;4933028;28;20416;-74
2022/03/16 11:15:18;;;;;;;9.65;7.90;;;13.40;22.60;;;;;;4935645;29;20466;-73
2022/03/16 11:17:44;;;;;;;10.07;8.30;;;13.50;22.30;;;;;;4930820;28;20426;-75
2022/03/16 11:20:11;;;;;;;10.07;7.70;;;13.60;21.90;;;;;;4930068;29;20504;-75
2022/03/16 11:25:48;;;;;;;9.80;8.10;;;13.80;22.30;;;;;;4932818;28;20406;-76
2022/03/16 11:28:23;;;;;;;11.05;8.10;;;14.00;21.10;;;;;;4930763;28;20439;-75
2022/03/16 11:30:53;;;;;;;9.98;7.50;;;14.10;20.00;;;;;;4936446;28;20421;-75
2022/03/16 11:33:19;;;;;;;10.50;8.27;;;14.20;19.50;;;;;;4937407;28;20935;-76
2022/03/16 11:35:45;;;;;;;11.02;8.57;;;14.00;19.40;;;;;;4933959;28;20419;-75
2022/03/16 11:38:14;;;;;;;9.73;7.55;;;13.90;19.80;;;;;;4939583;28;20404;-75
2022/03/16 11:40:43;;;;;;;10.70;8.00;;;14.00;20.00;;;;;;4941832;28;20476;-76
2022/03/16 11:43:11;;;;;;;10.98;7.70;;;14.10;19.60;;;;;;4933086;29;20399;-76
2022/03/16 11:45:42;;;;;;;11.32;8.20;;;14.10;19.90;;;;;;4931874;28;20500;-76
2022/03/16 11:48:26;;;;;;;10.80;7.40;;;14.00;19.90;;;;;;4929365;28;20400;-76
2022/03/16 11:51:20;;;;;;;10.65;7.60;;;14.20;19.30;;;;;;4928586;28;20499;-77
2022/03/16 11:53:57;;;;;;;9.00;7.50;;;14.30;19.20;;;;;;4928018;28;20408;-75
2022/03/16 11:56:45;;;;;;;8.50;7.10;;;14.50;18.40;;;;;;4928674;28;20403;-76
2022/03/16 11:59:28;;;;;;;8.20;6.90;;;14.70;17.90;;;;;;4929175;29;20408;-78
2022/03/16 12:02:09;;;;;;;7.55;6.40;;;14.70;17.60;;;;;;4929808;28;20419;-77
2022/03/16 12:04:43;;;;;;;13.05;7.00;;;14.90;17.90;;;;;;4911539;28;20411;-76
2022/03/16 12:07:15;;;;;;;8.73;6.27;;;15.10;17.30;;;;;;4927489;28;20408;-76
2022/03/16 12:09:50;;;;;;;9.95;6.80;;;15.10;17.00;;;;;;4916938;28;20746;-77
2022/03/16 12:15:28;;;;;;;9.70;7.50;;;15.40;16.30;;;;;;4929966;29;20387;-76
2022/03/16 12:17:56;;;;;;;8.57;7.50;;;15.10;16.90;;;;;;4936519;28;20435;-76
2022/03/16 12:20:30;;;;;;;8.82;6.43;;;15.10;16.80;;;;;;4931844;28;20416;-76
2022/03/16 12:23:01;;;;;;;12.93;6.70;;;15.20;17.00;;;;;;4932017;28;20407;-75
2022/03/16 12:25:29;;;;;;;7.80;6.10;;;15.30;17.20;;;;;;4913910;28;20419;-76
2022/03/16 12:30:51;;;;;;;11.70;6.78;;;15.70;16.10;;;;;;4929232;29;20926;-76
2022/03/16 12:33:23;;;;;;;8.07;6.45;;;15.70;16.20;;;;;;4932424;28;20422;-76
2022/03/16 12:36:12;;;;;;;8.55;6.65;;;15.60;15.60;;;;;;4931243;28;20413;-76
2022/03/16 12:38:40;;;;;;;13.20;6.57;;;15.50;16.00;;;;;;4935862;28;20411;-77
2022/03/16 12:44:03;;;;;;;8.90;6.50;;;15.80;15.00;;;;;;4956352;28;20398;-74
2022/03/16 12:46:37;;;;;;;13.50;6.57;;;15.70;15.70;;;;;;4930572;28;20443;-76
2022/03/16 12:49:04;;;;;;;15.98;8.98;;;15.80;15.50;;;;;;4935098;28;20409;-76
2022/03/16 12:51:59;;;;;;;8.38;6.40;;;16.00;15.60;;;;;;4935945;29;20506;-76
2022/03/16 12:54:29;;;;;;;9.47;6.83;;;16.30;14.70;;;;;;4911399;28;20487;-76
2022/03/16 12:57:03;;;;;;;6.50;5.40;;;16.50;14.60;;;;;;4931510;29;20563;-75
2022/03/16 12:59:31;;;;;;;10.48;6.25;;;16.50;14.30;;;;;;4932298;28;20477;-76
2022/03/16 13:01:58;;;;;;;10.30;6.30;;;16.20;14.40;;;;;;4934106;29;20916;-75